createdAt,value
2017-04-04T00:00:10.255Z,7.21
2017-04-04T00:00:50.783Z,7.2
2017-04-04T00:01:31.295Z,7.27
2017-04-04T00:02:11.834Z,7.2
2017-04-04T00:02:52.343Z,7.28
2017-04-04T00:03:32.879Z,7.2
2017-04-04T00:04:13.397Z,7.21
2017-04-04T00:04:53.923Z,7.21
2017-04-04T00:05:34.473Z,7.17
2017-04-04T00:06:14.964Z,7.24
2017-04-04T00:06:55.486Z,7.16
2017-04-04T00:07:36.016Z,7.15
2017-04-04T00:08:16.522Z,7.17
2017-04-04T00:08:57.040Z,7.17
2017-04-04T00:09:37.563Z,7.17
2017-04-04T00:10:18.090Z,7.06
2017-04-04T00:10:58.611Z,7.16
2017-04-04T00:11:39.134Z,7.06
2017-04-04T00:12:19.652Z,7.05
2017-04-04T00:13:00.152Z,7.09
2017-04-04T00:13:40.682Z,7.05
2017-04-04T00:14:21.191Z,7.02
2017-04-04T00:15:01.719Z,7.05
2017-04-04T00:15:42.216Z,7.09
2017-04-04T00:16:22.743Z,7.09
2017-04-04T00:17:03.271Z,7.05
2017-04-04T00:17:43.792Z,7.09
2017-04-04T00:18:24.327Z,7.09
2017-04-04T00:19:04.867Z,7.1
2017-04-04T00:19:45.389Z,7.09
2017-04-04T00:20:25.932Z,7.09
2017-04-04T00:21:06.468Z,7.06
2017-04-04T00:21:46.975Z,7.07
2017-04-04T00:22:27.508Z,7.1
2017-04-04T00:23:08.020Z,7.06
2017-04-04T00:23:48.553Z,7.1
2017-04-04T00:24:29.092Z,7.07
2017-04-04T00:25:09.610Z,7.07
2017-04-04T00:25:50.131Z,7.06
2017-04-04T00:26:30.664Z,7.03
2017-04-04T00:27:11.184Z,6.98
2017-04-04T00:27:51.688Z,6.95
2017-04-04T00:28:32.207Z,6.97
2017-04-04T00:29:12.739Z,6.92
2017-04-04T00:29:53.268Z,6.97
2017-04-04T00:30:33.796Z,6.95
2017-04-04T00:31:14.317Z,6.89
2017-04-04T00:31:54.845Z,6.88
2017-04-04T00:32:35.385Z,6.89
2017-04-04T00:33:15.889Z,6.85
2017-04-04T00:33:56.418Z,6.85
2017-04-04T00:34:36.928Z,6.85
2017-04-04T00:35:17.443Z,6.81
2017-04-04T00:35:57.969Z,6.8
2017-04-04T00:36:38.486Z,6.76
2017-04-04T00:37:19.010Z,6.74
2017-04-04T00:37:59.520Z,6.74
2017-04-04T00:38:40.046Z,6.79
2017-04-04T00:39:20.578Z,6.8
2017-04-04T00:40:01.110Z,6.84
2017-04-04T00:40:41.634Z,6.87
2017-04-04T00:41:22.162Z,6.76
2017-04-04T00:42:02.696Z,6.8
2017-04-04T00:42:43.231Z,6.77
2017-04-04T00:43:23.761Z,6.77
2017-04-04T00:44:04.273Z,6.7
2017-04-04T00:44:44.820Z,6.71
2017-04-04T00:45:25.336Z,6.81
2017-04-04T00:46:05.842Z,6.79
2017-04-04T00:46:46.348Z,6.77
2017-04-04T00:47:26.859Z,6.76
2017-04-04T00:48:07.385Z,6.7
2017-04-04T00:48:47.904Z,6.8
2017-04-04T00:49:28.431Z,6.7
2017-04-04T00:50:08.958Z,6.73
2017-04-04T00:50:49.486Z,6.77
2017-04-04T00:51:30.011Z,6.76
2017-04-04T00:52:10.546Z,6.88
2017-04-04T00:52:51.045Z,6.81
2017-04-04T00:53:31.573Z,6.77
2017-04-04T00:54:12.089Z,6.77
2017-04-04T00:54:52.630Z,6.84
2017-04-04T00:55:33.152Z,6.79
2017-04-04T00:56:13.678Z,6.79
2017-04-04T00:56:54.211Z,6.8
2017-04-04T00:57:34.734Z,6.79
2017-04-04T00:58:15.255Z,6.79
2017-04-04T00:58:55.778Z,6.71
2017-04-04T00:59:36.315Z,6.79
2017-04-04T01:00:16.857Z,6.7
2017-04-04T01:00:57.369Z,6.67
2017-04-04T01:01:37.888Z,6.76
2017-04-04T01:02:18.418Z,6.71
2017-04-04T01:02:58.952Z,6.7
2017-04-04T01:03:39.479Z,6.7
2017-04-04T01:04:19.995Z,6.73
2017-04-04T01:05:00.527Z,6.73
2017-04-04T01:05:41.067Z,6.71
2017-04-04T01:06:21.569Z,6.73
2017-04-04T01:07:02.102Z,6.62
2017-04-04T01:07:42.633Z,6.61
2017-04-04T01:08:23.149Z,6.64
2017-04-04T01:09:03.695Z,6.62
2017-04-04T01:09:44.211Z,6.62
2017-04-04T01:10:24.744Z,6.64
2017-04-04T01:11:05.282Z,6.59
2017-04-04T01:11:45.811Z,6.58
2017-04-04T01:12:26.340Z,6.59
2017-04-04T01:13:06.861Z,6.55
2017-04-04T01:13:47.383Z,6.49
2017-04-04T01:14:27.915Z,6.49
2017-04-04T01:15:08.446Z,6.44
2017-04-04T01:15:48.978Z,6.4
2017-04-04T01:16:29.512Z,6.38
2017-04-04T01:17:10.040Z,6.43
2017-04-04T01:17:50.581Z,6.31
2017-04-04T01:18:31.112Z,6.34
2017-04-04T01:19:11.637Z,6.33
2017-04-04T01:19:52.156Z,6.31
2017-04-04T01:20:32.687Z,6.3
2017-04-04T01:21:13.255Z,6.27
2017-04-04T01:21:53.755Z,6.28
2017-04-04T01:22:34.279Z,6.28
2017-04-04T01:23:14.803Z,6.27
2017-04-04T01:23:55.326Z,6.17
2017-04-04T01:24:35.866Z,6.27
2017-04-04T01:25:16.398Z,6.22
2017-04-04T01:25:56.935Z,6.27
2017-04-04T01:26:37.459Z,6.25
2017-04-04T01:27:17.969Z,6.25
2017-04-04T01:27:58.503Z,6.31
2017-04-04T01:28:39.040Z,6.34
2017-04-04T01:29:19.561Z,6.25
2017-04-04T01:30:00.090Z,6.22
2017-04-04T01:30:40.628Z,6.27
2017-04-04T01:31:21.163Z,6.3
2017-04-04T01:32:01.697Z,6.28
2017-04-04T01:32:42.260Z,6.3
2017-04-04T01:33:22.749Z,6.22
2017-04-04T01:34:03.274Z,6.27
2017-04-04T01:34:43.787Z,6.3
2017-04-04T01:35:24.309Z,6.21
2017-04-04T01:36:04.830Z,6.17
2017-04-04T01:36:45.350Z,6.14
2017-04-04T01:37:25.876Z,6.17
2017-04-04T01:38:06.388Z,6.11
2017-04-04T01:38:46.912Z,6.06
2017-04-04T01:39:27.440Z,6.08
2017-04-04T01:40:07.971Z,6.01
2017-04-04T01:40:48.508Z,6.11
2017-04-04T01:41:29.038Z,6
2017-04-04T01:42:09.570Z,5.96
2017-04-04T01:42:50.104Z,6.06
2017-04-04T01:43:30.639Z,6
2017-04-04T01:44:11.171Z,5.99
2017-04-04T01:44:51.697Z,6.08
2017-04-04T01:45:32.232Z,6.01
2017-04-04T01:46:12.770Z,6.01
2017-04-04T01:46:53.280Z,5.97
2017-04-04T01:47:33.787Z,5.97
2017-04-04T01:48:14.303Z,5.99
2017-04-04T01:48:54.846Z,6.08
2017-04-04T01:49:35.336Z,6.04
2017-04-04T01:50:15.866Z,6.06
2017-04-04T01:50:56.399Z,6.09
2017-04-04T01:51:36.932Z,6.04
2017-04-04T01:52:17.463Z,6.06
2017-04-04T01:52:57.997Z,6.04
2017-04-04T01:53:38.534Z,6.03
2017-04-04T01:54:19.069Z,6
2017-04-04T01:54:59.595Z,5.99
2017-04-04T01:55:40.112Z,6.08
2017-04-04T01:56:20.652Z,5.99
2017-04-04T01:57:01.168Z,6.03
2017-04-04T01:57:41.700Z,6.03
2017-04-04T01:58:22.214Z,6.03
2017-04-04T01:59:02.753Z,6.03
2017-04-04T01:59:43.282Z,6.03
2017-04-04T02:00:23.819Z,6.04
2017-04-04T02:01:04.344Z,6.08
2017-04-04T02:01:44.862Z,6.03
2017-04-04T02:02:25.375Z,6.03
2017-04-04T02:03:05.896Z,5.99
2017-04-04T02:03:46.422Z,5.97
2017-04-04T02:04:26.947Z,5.94
2017-04-04T02:05:07.476Z,6
2017-04-04T02:05:47.997Z,6.04
2017-04-04T02:06:28.499Z,6
2017-04-04T02:07:09.115Z,6
2017-04-04T02:07:49.629Z,6.01
2017-04-04T02:08:30.168Z,6.06
2017-04-04T02:09:10.679Z,5.97
2017-04-04T02:09:51.206Z,5.99
2017-04-04T02:10:31.744Z,6.01
2017-04-04T02:11:12.250Z,6
2017-04-04T02:11:52.786Z,5.97
2017-04-04T02:12:33.316Z,5.99
2017-04-04T02:13:13.854Z,6
2017-04-04T02:13:54.371Z,5.93
2017-04-04T02:14:34.890Z,5.91
2017-04-04T02:15:15.425Z,5.96
2017-04-04T02:15:55.942Z,5.96
2017-04-04T02:16:36.474Z,5.99
2017-04-04T02:17:17.000Z,5.86
2017-04-04T02:17:57.527Z,5.89
2017-04-04T02:18:38.065Z,5.89
2017-04-04T02:19:18.604Z,5.81
2017-04-04T02:19:59.117Z,5.91
2017-04-04T02:20:39.652Z,5.83
2017-04-04T02:21:20.238Z,5.81
2017-04-04T02:22:00.747Z,5.81
2017-04-04T02:22:41.262Z,5.74
2017-04-04T02:23:21.790Z,5.76
2017-04-04T02:24:02.323Z,5.75
2017-04-04T02:24:42.837Z,5.75
2017-04-04T02:25:23.352Z,5.75
2017-04-04T02:26:03.879Z,5.75
2017-04-04T02:26:44.387Z,5.71
2017-04-04T02:27:24.913Z,5.67
2017-04-04T02:28:05.440Z,5.74
2017-04-04T02:28:45.968Z,5.75
2017-04-04T02:29:26.503Z,5.75
2017-04-04T02:30:07.019Z,5.74
2017-04-04T02:30:47.531Z,5.72
2017-04-04T02:31:28.063Z,5.68
2017-04-04T02:32:08.588Z,5.71
2017-04-04T02:32:49.112Z,5.68
2017-04-04T02:33:29.655Z,5.68
2017-04-04T02:34:10.175Z,5.75
2017-04-04T02:34:50.713Z,5.74
2017-04-04T02:35:31.243Z,5.65
2017-04-04T02:36:11.770Z,5.71
2017-04-04T02:36:52.289Z,5.76
2017-04-04T02:37:32.821Z,5.63
2017-04-04T02:38:13.349Z,5.65
2017-04-04T02:38:53.883Z,5.63
2017-04-04T02:39:34.407Z,5.67
2017-04-04T02:40:14.927Z,5.63
2017-04-04T02:40:55.438Z,5.64
2017-04-04T02:41:35.947Z,5.61
2017-04-04T02:42:16.479Z,5.64
2017-04-04T02:42:56.995Z,5.65
2017-04-04T02:43:37.506Z,5.61
2017-04-04T02:44:18.013Z,5.64
2017-04-04T02:44:58.538Z,5.64
2017-04-04T02:45:39.054Z,5.68
2017-04-04T02:46:19.574Z,5.65
2017-04-04T02:47:00.107Z,5.71
2017-04-04T02:47:40.639Z,5.68
2017-04-04T02:48:21.170Z,5.74
2017-04-04T02:49:01.683Z,5.6
2017-04-04T02:49:42.227Z,5.65
2017-04-04T02:50:22.756Z,5.64
2017-04-04T02:51:03.290Z,5.65
2017-04-04T02:51:43.834Z,5.61
2017-04-04T02:52:24.357Z,5.63
2017-04-04T02:53:04.896Z,5.64
2017-04-04T02:53:45.430Z,5.58
2017-04-04T02:54:25.959Z,5.63
2017-04-04T02:55:06.477Z,5.67
2017-04-04T02:55:46.992Z,5.64
2017-04-04T02:56:27.514Z,5.63
2017-04-04T02:57:08.045Z,5.63
2017-04-04T02:57:48.566Z,5.65
2017-04-04T02:58:29.089Z,5.6
2017-04-04T02:59:09.624Z,5.61
2017-04-04T02:59:50.157Z,5.6
2017-04-04T03:00:30.684Z,5.65
2017-04-04T03:01:11.212Z,5.57
2017-04-04T03:01:51.717Z,5.63
2017-04-04T03:02:32.244Z,5.57
2017-04-04T03:03:12.836Z,5.49
2017-04-04T03:03:53.370Z,5.6
2017-04-04T03:04:33.900Z,5.46
2017-04-04T03:05:14.436Z,5.48
2017-04-04T03:05:54.948Z,5.49
2017-04-04T03:06:35.507Z,5.51
2017-04-04T03:07:16.053Z,5.48
2017-04-04T03:07:56.550Z,5.46
2017-04-04T03:08:37.093Z,5.53
2017-04-04T03:09:17.616Z,5.48
2017-04-04T03:09:58.143Z,5.48
2017-04-04T03:10:38.671Z,5.51
2017-04-04T03:11:19.205Z,5.51
2017-04-04T03:11:59.745Z,5.48
2017-04-04T03:12:40.262Z,5.46
2017-04-04T03:13:20.793Z,5.49
2017-04-04T03:14:01.319Z,5.4
2017-04-04T03:14:41.856Z,5.45
2017-04-04T03:15:22.373Z,5.43
2017-04-04T03:16:02.893Z,5.38
2017-04-04T03:16:43.407Z,5.3
2017-04-04T03:17:23.937Z,5.28
2017-04-04T03:18:04.469Z,5.27
2017-04-04T03:18:44.983Z,5.38
2017-04-04T03:19:25.506Z,5.39
2017-04-04T03:20:06.026Z,5.46
2017-04-04T03:20:46.545Z,5.35
2017-04-04T03:21:27.042Z,5.39
2017-04-04T03:22:07.550Z,5.33
2017-04-04T03:22:48.069Z,5.28
2017-04-04T03:23:28.572Z,5.35
2017-04-04T03:24:09.098Z,5.38
2017-04-04T03:24:49.613Z,5.21
2017-04-04T03:25:30.149Z,5.28
2017-04-04T03:26:10.680Z,5.25
2017-04-04T03:26:51.198Z,5.22
2017-04-04T03:27:31.727Z,5.28
2017-04-04T03:28:12.257Z,5.21
2017-04-04T03:28:52.787Z,5.27
2017-04-04T03:29:33.300Z,5.24
2017-04-04T03:30:13.831Z,5.15
2017-04-04T03:30:54.359Z,5.24
2017-04-04T03:31:34.945Z,5.21
2017-04-04T03:32:15.477Z,5.2
2017-04-04T03:32:56.002Z,5.12
2017-04-04T03:33:36.522Z,5.2
2017-04-04T03:34:17.048Z,5.12
2017-04-04T03:34:57.555Z,5.13
2017-04-04T03:35:38.089Z,5.15
2017-04-04T03:36:18.598Z,5.12
2017-04-04T03:36:59.100Z,5.13
2017-04-04T03:37:39.623Z,5.17
2017-04-04T03:38:20.152Z,5.25
2017-04-04T03:39:00.686Z,5.22
2017-04-04T03:39:41.225Z,5.15
2017-04-04T03:40:21.770Z,5.15
2017-04-04T03:41:02.249Z,5.12
2017-04-04T03:41:42.768Z,5.13
2017-04-04T03:42:23.297Z,5.15
2017-04-04T03:43:03.818Z,5.13
2017-04-04T03:43:44.340Z,5.13
2017-04-04T03:44:24.895Z,5.2
2017-04-04T03:45:05.411Z,5.2
2017-04-04T03:45:45.948Z,5.18
2017-04-04T03:46:26.512Z,5.1
2017-04-04T03:47:07.044Z,5.15
2017-04-04T03:47:47.593Z,5.15
2017-04-04T03:48:28.115Z,5.13
2017-04-04T03:49:08.627Z,5.13
2017-04-04T03:49:49.161Z,5.12
2017-04-04T03:50:29.687Z,5.18
2017-04-04T03:51:10.206Z,5.21
2017-04-04T03:51:50.736Z,5.1
2017-04-04T03:52:31.236Z,5.15
2017-04-04T03:53:11.766Z,5.18
2017-04-04T03:53:52.265Z,5.13
2017-04-04T03:54:32.966Z,5.18
2017-04-04T03:55:13.470Z,5.2
2017-04-04T03:55:53.994Z,5.09
2017-04-04T03:56:34.522Z,5.13
2017-04-04T03:57:15.073Z,5.1
2017-04-04T03:57:55.587Z,5.1
2017-04-04T03:58:36.126Z,5.13
2017-04-04T03:59:16.653Z,5.1
2017-04-04T03:59:57.306Z,5.07
2017-04-04T04:00:37.819Z,5.13
2017-04-04T04:01:18.370Z,5.1
2017-04-04T04:01:58.906Z,5.06
2017-04-04T04:02:39.437Z,5.12
2017-04-04T04:03:20.003Z,5.09
2017-04-04T04:04:00.527Z,5.04
2017-04-04T04:04:41.060Z,5.07
2017-04-04T04:05:21.585Z,5.13
2017-04-04T04:06:02.094Z,5.18
2017-04-04T04:06:42.604Z,5.17
2017-04-04T04:07:23.099Z,5.12
2017-04-04T04:08:03.623Z,5.04
2017-04-04T04:08:44.148Z,5.07
2017-04-04T04:09:24.678Z,5.12
2017-04-04T04:10:05.182Z,5.03
2017-04-04T04:10:45.711Z,5.07
2017-04-04T04:11:26.231Z,5.09
2017-04-04T04:12:06.776Z,5.04
2017-04-04T04:12:47.332Z,5.07
2017-04-04T04:14:41.919Z,5.04
2017-04-04T04:15:22.432Z,4.96
2017-04-04T04:16:02.960Z,5.1
2017-04-04T04:16:43.483Z,4.99
2017-04-04T04:17:25.561Z,5.02
2017-04-04T04:18:06.104Z,5.02
2017-04-04T04:18:46.628Z,5
2017-04-04T04:19:27.156Z,5.03
2017-04-04T04:20:07.659Z,4.96
2017-04-04T04:20:48.190Z,4.97
2017-04-04T04:21:28.724Z,4.99
2017-04-04T04:22:09.248Z,4.96
2017-04-04T04:22:49.778Z,4.94
2017-04-04T04:23:30.302Z,4.92
2017-04-04T04:24:10.830Z,4.94
2017-04-04T04:24:51.355Z,4.92
2017-04-04T04:25:31.872Z,4.86
2017-04-04T04:26:12.402Z,4.91
2017-04-04T04:26:52.912Z,4.92
2017-04-04T04:27:33.433Z,4.92
2017-04-04T04:28:13.956Z,4.94
2017-04-04T04:28:54.472Z,4.94
2017-04-04T04:29:34.963Z,4.92
2017-04-04T04:30:15.491Z,4.91
2017-04-04T04:30:56.031Z,4.86
2017-04-04T04:31:36.544Z,4.88
2017-04-04T04:32:17.057Z,4.88
2017-04-04T04:32:57.550Z,4.88
2017-04-04T04:33:38.066Z,4.89
2017-04-04T04:34:18.570Z,4.89
2017-04-04T04:34:59.120Z,4.89
2017-04-04T04:35:39.642Z,4.91
2017-04-04T04:36:20.168Z,4.91
2017-04-04T04:37:00.693Z,4.84
2017-04-04T04:37:41.202Z,4.86
2017-04-04T04:38:21.714Z,4.84
2017-04-04T04:39:02.227Z,4.86
2017-04-04T04:39:42.758Z,4.84
2017-04-04T04:40:23.292Z,4.88
2017-04-04T04:41:03.822Z,4.8
2017-04-04T04:41:44.353Z,4.82
2017-04-04T04:42:24.887Z,4.89
2017-04-04T04:43:05.393Z,4.86
2017-04-04T04:43:45.916Z,4.86
2017-04-04T04:44:26.458Z,4.88
2017-04-04T04:45:06.971Z,4.86
2017-04-04T04:45:47.493Z,4.84
2017-04-04T04:46:28.029Z,4.85
2017-04-04T04:47:08.514Z,4.84
2017-04-04T04:47:49.026Z,4.8
2017-04-04T04:48:29.535Z,4.89
2017-04-04T04:49:10.059Z,4.89
2017-04-04T04:49:50.573Z,4.82
2017-04-04T04:50:31.087Z,4.82
2017-04-04T04:51:11.613Z,4.73
2017-04-04T04:51:52.205Z,4.78
2017-04-04T04:52:32.780Z,4.86
2017-04-04T04:53:13.317Z,4.77
2017-04-04T04:53:53.834Z,4.77
2017-04-04T04:54:34.361Z,4.8
2017-04-04T04:55:14.865Z,4.77
2017-04-04T04:55:55.389Z,4.82
2017-04-04T04:56:35.924Z,4.75
2017-04-04T04:57:16.427Z,4.77
2017-04-04T04:57:56.948Z,4.75
2017-04-04T04:58:37.472Z,4.85
2017-04-04T04:59:18.027Z,4.73
2017-04-04T04:59:58.551Z,4.82
2017-04-04T05:00:39.076Z,4.8
2017-04-04T05:01:19.601Z,4.77
2017-04-04T05:02:00.103Z,4.78
2017-04-04T05:02:40.619Z,4.72
2017-04-04T05:03:21.138Z,4.75
2017-04-04T05:04:01.674Z,4.85
2017-04-04T05:04:42.177Z,4.75
2017-04-04T05:05:22.686Z,4.73
2017-04-04T05:06:03.188Z,4.72
2017-04-04T05:06:43.710Z,4.8
2017-04-04T05:07:24.234Z,4.73
2017-04-04T05:08:04.768Z,4.78
2017-04-04T05:08:45.285Z,4.77
2017-04-04T05:09:25.801Z,4.82
2017-04-04T05:10:06.339Z,4.8
2017-04-04T05:10:46.867Z,4.8
2017-04-04T05:11:27.386Z,4.77
2017-04-04T05:12:07.914Z,4.75
2017-04-04T05:12:48.433Z,4.77
2017-04-04T05:13:28.957Z,4.77
2017-04-04T05:14:09.484Z,4.78
2017-04-04T05:14:49.995Z,4.8
2017-04-04T05:15:30.534Z,4.75
2017-04-04T05:16:11.054Z,4.77
2017-04-04T05:16:51.570Z,4.67
2017-04-04T05:17:32.129Z,4.77
2017-04-04T05:18:12.668Z,4.78
2017-04-04T05:18:53.185Z,4.78
2017-04-04T05:19:33.710Z,4.77
2017-04-04T05:20:14.237Z,4.72
2017-04-04T05:20:54.748Z,4.7
2017-04-04T05:21:35.282Z,4.72
2017-04-04T05:22:15.788Z,4.72
2017-04-04T05:22:56.286Z,4.73
2017-04-04T05:23:36.776Z,4.77
2017-04-04T05:24:17.282Z,4.72
2017-04-04T05:24:58.329Z,4.75
2017-04-04T05:25:38.819Z,4.8
2017-04-04T05:26:19.364Z,4.77
2017-04-04T05:26:59.889Z,4.8
2017-04-04T05:27:40.384Z,4.75
2017-04-04T05:28:20.930Z,4.77
2017-04-04T05:29:01.461Z,4.8
2017-04-04T05:29:41.973Z,4.77
2017-04-04T05:30:22.491Z,4.82
2017-04-04T05:31:03.009Z,4.75
2017-04-04T05:31:43.563Z,4.82
2017-04-04T05:32:24.061Z,4.82
2017-04-04T05:33:04.618Z,4.78
2017-04-04T05:33:45.110Z,4.84
2017-04-04T05:34:25.632Z,4.75
2017-04-04T05:35:06.121Z,4.82
2017-04-04T05:35:46.671Z,4.78
2017-04-04T05:36:27.250Z,4.85
2017-04-04T05:37:07.765Z,4.8
2017-04-04T05:37:48.275Z,4.82
2017-04-04T05:38:28.793Z,4.88
2017-04-04T05:39:09.322Z,4.86
2017-04-04T05:39:49.851Z,4.86
2017-04-04T05:40:30.380Z,4.86
2017-04-04T05:41:10.914Z,4.88
2017-04-04T05:41:51.440Z,4.96
2017-04-04T05:42:31.970Z,4.99
2017-04-04T05:43:12.503Z,4.92
2017-04-04T05:43:53.047Z,4.92
2017-04-04T05:44:33.582Z,4.91
2017-04-04T05:45:14.099Z,4.96
2017-04-04T05:45:54.625Z,5
2017-04-04T05:46:35.154Z,4.94
2017-04-04T05:47:15.685Z,4.97
2017-04-04T05:47:56.207Z,4.89
2017-04-04T05:48:36.742Z,4.91
2017-04-04T05:49:17.248Z,4.96
2017-04-04T05:49:57.798Z,4.94
2017-04-04T05:50:38.318Z,5.07
2017-04-04T05:51:18.845Z,5.03
2017-04-04T05:51:59.370Z,5.03
2017-04-04T05:52:39.869Z,5.03
2017-04-04T05:53:20.612Z,5.09
2017-04-04T05:54:01.314Z,5.1
2017-04-04T05:54:41.837Z,5.1
2017-04-04T05:55:22.341Z,5.07
2017-04-04T05:56:02.893Z,5.07
2017-04-04T05:56:43.397Z,5.06
2017-04-04T05:57:23.959Z,5.07
2017-04-04T05:58:04.481Z,5.12
2017-04-04T05:58:44.970Z,5.1
2017-04-04T05:59:25.479Z,5.13
2017-04-04T06:00:06.007Z,5.1
2017-04-04T06:00:46.499Z,5.2
2017-04-04T06:01:27.053Z,5.12
2017-04-04T06:02:07.521Z,5.17
2017-04-04T06:02:48.027Z,5.15
2017-04-04T06:03:28.543Z,5.1
2017-04-04T06:04:09.103Z,5.15
2017-04-04T06:04:49.633Z,5.21
2017-04-04T06:05:30.176Z,5.17
2017-04-04T06:06:10.743Z,5.25
2017-04-04T06:06:51.305Z,5.2
2017-04-04T06:07:31.954Z,5.2
2017-04-04T06:08:12.471Z,5.21
2017-04-04T06:08:53.001Z,5.25
2017-04-04T06:09:33.521Z,5.27
2017-04-04T06:10:14.069Z,5.22
2017-04-04T06:10:54.600Z,5.35
2017-04-04T06:11:35.127Z,5.35
2017-04-04T06:12:15.661Z,5.33
2017-04-04T06:12:56.190Z,5.38
2017-04-04T06:13:36.721Z,5.39
2017-04-04T06:14:17.256Z,5.4
2017-04-04T06:14:57.791Z,5.38
2017-04-04T06:15:38.346Z,5.45
2017-04-04T06:16:18.868Z,5.38
2017-04-04T06:16:59.406Z,5.53
2017-04-04T06:17:39.932Z,5.49
2017-04-04T06:18:20.455Z,5.53
2017-04-04T06:19:00.983Z,5.43
2017-04-04T06:19:41.516Z,5.46
2017-04-04T06:20:22.037Z,5.53
2017-04-04T06:21:02.559Z,5.65
2017-04-04T06:21:43.087Z,5.57
2017-04-04T06:22:23.598Z,5.61
2017-04-04T06:23:04.125Z,5.74
2017-04-04T06:23:44.633Z,5.64
2017-04-04T06:24:25.148Z,5.68
2017-04-04T06:25:05.668Z,5.64
2017-04-04T06:25:46.200Z,5.65
2017-04-04T06:26:26.728Z,5.68
2017-04-04T06:27:07.277Z,5.74
2017-04-04T06:27:47.791Z,5.78
2017-04-04T06:28:28.324Z,5.72
2017-04-04T06:29:08.860Z,5.75
2017-04-04T06:29:49.423Z,5.75
2017-04-04T06:30:29.974Z,5.86
2017-04-04T06:31:10.498Z,5.86
2017-04-04T06:31:51.030Z,5.83
2017-04-04T06:32:31.562Z,5.82
2017-04-04T06:33:12.254Z,5.85
2017-04-04T06:33:52.712Z,5.94
2017-04-04T06:34:33.247Z,5.96
2017-04-04T06:35:13.766Z,6
2017-04-04T06:35:54.293Z,6.04
2017-04-04T06:36:34.807Z,6.08
2017-04-04T06:37:15.328Z,6.04
2017-04-04T06:37:55.850Z,5.97
2017-04-04T06:38:36.362Z,6.03
2017-04-04T06:39:16.886Z,6.12
2017-04-04T06:39:57.435Z,6.14
2017-04-04T06:40:37.936Z,6.27
2017-04-04T06:41:18.472Z,6.15
2017-04-04T06:41:58.993Z,6.12
2017-04-04T06:42:39.515Z,6.21
2017-04-04T06:43:20.029Z,6.22
2017-04-04T06:44:00.551Z,6.21
2017-04-04T06:44:41.085Z,6.25
2017-04-04T06:45:21.617Z,6.31
2017-04-04T06:46:02.133Z,6.28
2017-04-04T06:46:42.646Z,6.33
2017-04-04T06:47:23.187Z,6.28
2017-04-04T06:48:03.709Z,6.31
2017-04-04T06:48:44.242Z,6.34
2017-04-04T06:49:24.773Z,6.44
2017-04-04T06:50:05.296Z,6.43
2017-04-04T06:50:45.806Z,6.46
2017-04-04T06:51:26.344Z,6.55
2017-04-04T06:52:06.876Z,6.55
2017-04-04T06:52:47.405Z,6.59
2017-04-04T06:53:27.940Z,6.55
2017-04-04T06:54:08.462Z,6.56
2017-04-04T06:54:49.001Z,6.52
2017-04-04T06:55:29.518Z,6.56
2017-04-04T06:56:10.050Z,6.61
2017-04-04T06:56:50.580Z,6.66
2017-04-04T06:57:31.112Z,6.62
2017-04-04T06:58:11.665Z,6.69
2017-04-04T06:58:52.213Z,6.73
2017-04-04T06:59:32.725Z,6.76
2017-04-04T07:00:13.255Z,6.71
2017-04-04T07:00:53.812Z,6.77
2017-04-04T07:01:34.351Z,6.73
2017-04-04T07:02:14.889Z,6.79
2017-04-04T07:02:55.417Z,6.77
2017-04-04T07:03:35.949Z,6.89
2017-04-04T07:04:16.482Z,6.88
2017-04-04T07:04:57.015Z,6.89
2017-04-04T07:05:37.521Z,6.89
2017-04-04T07:06:18.055Z,6.87
2017-04-04T07:06:58.599Z,6.95
2017-04-04T07:07:39.133Z,6.94
2017-04-04T07:08:19.672Z,6.98
2017-04-04T07:09:00.198Z,6.91
2017-04-04T07:09:40.752Z,6.95
2017-04-04T07:10:21.280Z,6.99
2017-04-04T07:11:01.804Z,6.97
2017-04-04T07:11:42.334Z,7.09
2017-04-04T07:12:22.867Z,7.09
2017-04-04T07:13:04.271Z,7.02
2017-04-04T07:13:44.786Z,7.09
2017-04-04T07:14:25.309Z,7.13
2017-04-04T07:15:05.826Z,7.23
2017-04-04T07:15:46.360Z,7.16
2017-04-04T07:16:27.499Z,7.23
2017-04-04T07:17:08.018Z,7.12
2017-04-04T07:17:48.565Z,7.2
2017-04-04T07:18:29.084Z,7.23
2017-04-04T07:19:09.606Z,7.17
2017-04-04T07:19:50.140Z,7.31
2017-04-04T07:20:30.679Z,7.31
2017-04-04T07:21:11.207Z,7.42
2017-04-04T07:21:52.491Z,7.43
2017-04-04T07:22:32.310Z,7.45
2017-04-04T07:23:12.861Z,7.43
2017-04-04T07:23:53.367Z,7.52
2017-04-04T07:24:33.905Z,7.49
2017-04-04T07:25:14.450Z,7.57
2017-04-04T07:25:55.051Z,7.72
2017-04-04T07:26:35.610Z,7.72
2017-04-04T07:27:16.130Z,7.74
2017-04-04T07:27:56.660Z,7.8
2017-04-04T07:28:37.203Z,7.86
2017-04-04T07:29:17.735Z,7.86
2017-04-04T07:29:58.280Z,7.95
2017-04-04T07:30:38.804Z,7.89
2017-04-04T07:31:19.352Z,7.97
2017-04-04T07:31:59.888Z,7.92
2017-04-04T07:32:40.448Z,8.01
2017-04-04T07:33:20.977Z,7.93
2017-04-04T07:34:01.514Z,8.07
2017-04-04T07:34:42.051Z,8.04
2017-04-04T07:35:22.553Z,8.11
2017-04-04T07:36:03.065Z,8.08
2017-04-04T07:36:43.655Z,8.19
2017-04-04T07:37:24.206Z,8.2
2017-04-04T07:38:04.743Z,8.22
2017-04-04T07:38:45.281Z,8.29
2017-04-04T07:39:25.843Z,8.34
2017-04-04T07:40:06.381Z,8.28
2017-04-04T07:40:46.901Z,8.33
2017-04-04T07:41:27.429Z,8.38
2017-04-04T07:42:07.958Z,8.4
2017-04-04T07:42:48.510Z,8.47
2017-04-04T07:43:29.059Z,8.55
2017-04-04T07:44:09.586Z,8.52
2017-04-04T07:44:50.160Z,8.59
2017-04-04T07:45:30.712Z,8.68
2017-04-04T07:46:11.241Z,8.73
2017-04-04T07:46:51.778Z,8.73
2017-04-04T07:47:32.312Z,8.74
2017-04-04T07:48:12.838Z,8.68
2017-04-04T07:48:53.391Z,8.77
2017-04-04T07:49:33.933Z,8.83
2017-04-04T07:50:14.468Z,8.8
2017-04-04T07:50:54.990Z,8.83
2017-04-04T07:51:35.525Z,8.86
2017-04-04T07:52:16.076Z,8.86
2017-04-04T07:52:56.595Z,8.96
2017-04-04T07:53:37.134Z,8.94
2017-04-04T07:54:17.669Z,9.01
2017-04-04T07:54:58.215Z,9.04
2017-04-04T07:55:38.750Z,9.04
2017-04-04T07:56:19.289Z,9.14
2017-04-04T07:56:59.822Z,9.13
2017-04-04T07:57:40.359Z,9.24
2017-04-04T07:58:20.888Z,9.23
2017-04-04T07:59:01.424Z,9.28
2017-04-04T07:59:41.963Z,9.24
2017-04-04T08:00:22.483Z,9.32
2017-04-04T08:01:03.032Z,9.43
2017-04-04T08:01:43.557Z,9.46
2017-04-04T08:02:24.100Z,9.5
2017-04-04T08:03:04.637Z,9.54
2017-04-04T08:03:45.172Z,9.6
2017-04-04T08:04:25.707Z,9.75
2017-04-04T08:05:06.243Z,9.76
2017-04-04T08:05:46.780Z,9.79
2017-04-04T08:06:27.323Z,9.9
2017-04-04T08:07:07.849Z,9.87
2017-04-04T08:07:48.383Z,9.99
2017-04-04T08:08:28.894Z,9.96
2017-04-04T08:09:09.436Z,10.05
2017-04-04T08:09:49.959Z,10.09
2017-04-04T08:10:30.483Z,10.04
2017-04-04T08:11:11.009Z,10.18
2017-04-04T08:11:51.545Z,10.2
2017-04-04T08:12:32.084Z,10.22
2017-04-04T08:13:12.620Z,10.25
2017-04-04T08:13:53.135Z,10.2
2017-04-04T08:14:33.671Z,10.27
2017-04-04T08:15:14.202Z,10.3
2017-04-04T08:15:54.781Z,10.36
2017-04-04T08:16:35.344Z,10.4
2017-04-04T08:17:15.850Z,10.36
2017-04-04T08:17:56.388Z,10.36
2017-04-04T08:18:36.928Z,10.38
2017-04-04T08:19:17.457Z,10.42
2017-04-04T08:19:57.998Z,10.51
2017-04-04T08:20:38.536Z,10.59
2017-04-04T08:21:19.175Z,10.63
2017-04-04T08:21:59.720Z,10.6
2017-04-04T08:22:40.250Z,10.64
2017-04-04T08:23:20.797Z,10.73
2017-04-04T08:24:01.347Z,10.74
2017-04-04T08:24:41.904Z,10.84
2017-04-04T08:25:22.440Z,10.91
2017-04-04T08:26:03.001Z,10.81
2017-04-04T08:26:43.499Z,10.88
2017-04-04T08:27:24.046Z,10.86
2017-04-04T08:28:04.570Z,10.91
2017-04-04T08:28:45.061Z,10.86
2017-04-04T08:29:25.594Z,10.96
2017-04-04T08:30:06.121Z,11.02
2017-04-04T08:30:46.645Z,11.1
2017-04-04T08:31:27.186Z,11.15
2017-04-04T08:32:07.720Z,11.24
2017-04-04T08:32:48.248Z,11.27
2017-04-04T08:33:28.780Z,11.36
2017-04-04T08:34:09.314Z,11.43
2017-04-04T08:34:49.847Z,11.44
2017-04-04T08:35:30.374Z,11.49
2017-04-04T08:36:10.901Z,11.64
2017-04-04T08:36:51.494Z,11.73
2017-04-04T08:37:32.026Z,11.72
2017-04-04T08:38:12.556Z,11.6
2017-04-04T08:38:53.095Z,11.6
2017-04-04T08:39:33.631Z,11.69
2017-04-04T08:40:14.150Z,11.52
2017-04-04T08:40:54.681Z,11.52
2017-04-04T08:41:35.220Z,11.55
2017-04-04T08:42:15.777Z,11.51
2017-04-04T08:42:56.311Z,11.62
2017-04-04T08:43:36.857Z,11.64
2017-04-04T08:44:17.398Z,11.75
2017-04-04T08:44:57.935Z,11.75
2017-04-04T08:45:38.470Z,11.9
2017-04-04T08:46:19.014Z,12.04
2017-04-04T08:46:59.555Z,12.17
2017-04-04T08:47:40.090Z,12.19
2017-04-04T08:48:20.629Z,12.13
2017-04-04T08:49:01.160Z,12.12
2017-04-04T08:49:41.699Z,12.27
2017-04-04T08:50:22.247Z,12.37
2017-04-04T08:51:02.779Z,12.42
2017-04-04T08:51:43.318Z,12.7
2017-04-04T08:52:23.858Z,12.92
2017-04-04T08:53:04.387Z,13.12
2017-04-04T08:53:44.929Z,13.33
2017-04-04T08:54:25.469Z,13.59
2017-04-04T08:55:06.009Z,13.78
2017-04-04T08:55:46.546Z,13.96
2017-04-04T08:56:27.079Z,13.99
2017-04-04T08:57:07.599Z,14.21
2017-04-04T08:57:48.129Z,14.29
2017-04-04T08:58:28.669Z,14.54
2017-04-04T08:59:09.219Z,14.78
2017-04-04T08:59:49.760Z,14.98
2017-04-04T09:00:30.301Z,15.03
2017-04-04T09:01:10.846Z,15.14